Time;durP1;ratioP1;P1;durP2;ratioP2;P2;SDS_P1;SDS_P2;PMS_P1;PMS_P2;Temp;Humidity;BMP_temperature;BMP_pressure;BME280_temperature;BME280_humidity;BME280_pressure;Samples;Min_cycle;Max_cycle;Signal;HPM_P1;HPM_P2
2024/03/14 00:00:58;;;;;;;13.53;6.47;;;;;;;;;;5055034;28;20037;-56
2024/03/14 00:03:24;;;;;;;9.97;6.23;;;;;;;;;;5053317;28;20274;-58
2024/03/14 00:05:53;;;;;;;10.20;5.63;;;;;;;;;;5054212;28;20455;-55
2024/03/14 00:08:18;;;;;;;9.07;5.80;;;;;;;;;;5054540;28;20050;-56
2024/03/14 00:10:47;;;;;;;10.00;6.23;;;;;;;;;;5054023;28;20517;-56
2024/03/14 00:13:13;;;;;;;10.47;5.97;;;;;;;;;;5053589;28;20290;-57
2024/03/14 00:15:38;;;;;;;10.50;6.20;;;;;;;;;;5054346;28;20266;-57
2024/03/14 00:18:04;;;;;;;12.30;5.80;;;;;;;;;;5055992;28;20048;-57
2024/03/14 00:20:30;;;;;;;9.38;5.78;;;;;;;;;;5054522;28;20121;-58
2024/03/14 00:22:57;;;;;;;11.23;5.28;;;;;;;;;;5055865;28;20038;-58
2024/03/14 00:25:22;;;;;;;10.43;5.40;;;;;;;;;;5051623;28;20030;-53
2024/03/14 00:27:48;;;;;;;11.93;5.53;;;;;;;;;;5053788;28;20297;-57
2024/03/14 00:30:14;;;;;;;9.70;6.25;;;;;;;;;;5051003;28;20325;-52
2024/03/14 00:32:40;;;;;;;11.10;5.70;;;;;;;;;;5053759;28;20033;-54
2024/03/14 00:35:06;;;;;;;10.13;5.27;;;;;;;;;;5053008;28;20293;-55
2024/03/14 00:37:32;;;;;;;9.38;4.95;;;;;;;;;;5053595;28;20025;-58
2024/03/14 00:39:57;;;;;;;11.97;5.53;;;;;;;;;;5054048;28;20393;-57
2024/03/14 00:42:26;;;;;;;8.65;5.25;;;;;;;;;;5054605;28;20741;-59
2024/03/14 00:44:52;;;;;;;9.90;5.77;;;;;;;;;;5052241;28;20101;-57
2024/03/14 00:47:18;;;;;;;12.93;5.85;;;;;;;;;;5053258;28;20290;-56
2024/03/14 00:49:43;;;;;;;11.33;5.43;;;;;;;;;;5053564;28;20052;-59
2024/03/14 00:52:09;;;;;;;6.87;5.03;;;;;;;;;;5053674;28;20326;-55
2024/03/14 00:54:35;;;;;;;;;;;;;;;;;;5052133;28;20029;-57
2024/03/14 00:57:02;;;;;;;10.15;5.47;;;;;;;;;;5052922;28;19913;-57
2024/03/14 00:59:27;;;;;;;8.00;5.40;;;;;;;;;;5056229;28;20105;-57
2024/03/14 01:01:54;;;;;;;9.93;5.77;;;;;;;;;;5054118;28;20262;-56
2024/03/14 01:04:20;;;;;;;7.90;5.43;;;;;;;;;;5055585;28;20025;-55
2024/03/14 01:06:45;;;;;;;8.67;5.23;;;;;;;;;;5055833;28;20275;-56
2024/03/14 01:09:11;;;;;;;10.10;5.73;;;;;;;;;;5051861;28;20049;-56
2024/03/14 01:11:36;;;;;;;11.52;5.80;;;;;;;;;;5051296;28;20028;-57
2024/03/14 01:14:02;;;;;;;9.13;5.53;;;;;;;;;;5050429;28;20025;-56
2024/03/14 01:16:27;;;;;;;11.63;5.57;;;;;;;;;;5053328;28;20269;-56
2024/03/14 01:18:53;;;;;;;11.53;6.00;;;;;;;;;;5051596;28;20339;-55
2024/03/14 01:21:20;;;;;;;9.33;7.10;;;;;;;;;;5056180;28;20266;-57
2024/03/14 01:23:45;;;;;;;12.40;6.77;;;;;;;;;;5053611;28;20334;-55
2024/03/14 01:26:10;;;;;;;12.27;7.03;;;;;;;;;;5055191;28;20332;-55
2024/03/14 01:28:36;;;;;;;12.18;7.72;;;;;;;;;;5054487;28;20045;-57
2024/03/14 01:31:02;;;;;;;14.70;7.90;;;;;;;;;;5055275;28;20053;-57
2024/03/14 01:33:28;;;;;;;13.50;7.75;;;;;;;;;;5053700;28;20026;-57
2024/03/14 01:35:58;;;;;;;14.10;7.82;;;;;;;;;;5052136;28;20068;-55
2024/03/14 01:38:24;;;;;;;14.50;8.73;;;;;;;;;;5050634;28;20075;-57
2024/03/14 01:40:50;;;;;;;12.85;8.00;;;;;;;;;;5051368;28;20254;-54
2024/03/14 01:43:16;;;;;;;13.50;8.00;;;;;;;;;;5053062;28;20053;-57
2024/03/14 01:45:42;;;;;;;17.40;8.40;;;;;;;;;;5051365;28;20037;-54
2024/03/14 01:48:09;;;;;;;14.57;8.68;;;;;;;;;;5051076;28;20059;-57
2024/03/14 01:50:34;;;;;;;14.30;8.80;;;;;;;;;;5051444;28;20040;-57
2024/03/14 01:53:00;;;;;;;14.80;9.30;;;;;;;;;;5051309;28;20275;-58
2024/03/14 01:55:27;;;;;;;16.33;10.32;;;;;;;;;;5052331;28;20045;-54
2024/03/14 01:57:52;;;;;;;17.25;10.35;;;;;;;;;;5054462;28;20045;-55
2024/03/14 02:00:22;;;;;;;18.00;10.68;;;;;;;;;;5049363;28;20026;-58
2024/03/14 02:02:50;;;;;;;18.73;10.47;;;;;;;;;;5052476;28;20025;-55
2024/03/14 02:05:20;;;;;;;19.93;10.63;;;;;;;;;;5050661;28;20259;-58
2024/03/14 02:07:46;;;;;;;15.77;10.07;;;;;;;;;;5051022;28;20259;-56
2024/03/14 02:10:14;;;;;;;18.92;9.95;;;;;;;;;;5049962;28;20266;-57
2024/03/14 02:12:40;;;;;;;18.63;10.50;;;;;;;;;;5049642;28;20076;-57
2024/03/14 02:15:08;;;;;;;15.80;8.90;;;;;;;;;;5051802;28;20266;-58
2024/03/14 02:17:34;;;;;;;15.23;9.03;;;;;;;;;;5050613;28;20049;-56
2024/03/14 02:20:00;;;;;;;14.85;9.00;;;;;;;;;;5052867;28;20338;-57
2024/03/14 02:22:29;;;;;;;14.98;8.90;;;;;;;;;;5051803;28;20037;-56
2024/03/14 02:24:55;;;;;;;18.30;9.97;;;;;;;;;;5050339;28;20036;-57
2024/03/14 02:27:20;;;;;;;19.63;9.95;;;;;;;;;;5050596;28;20282;-57
2024/03/14 02:29:46;;;;;;;19.27;10.75;;;;;;;;;;5050879;28;20060;-55
2024/03/14 02:32:11;;;;;;;17.23;11.27;;;;;;;;;;5050531;28;20037;-58
2024/03/14 02:34:36;;;;;;;22.60;13.13;;;;;;;;;;5053789;28;20056;-53
2024/03/14 02:37:02;;;;;;;23.17;14.30;;;;;;;;;;5052014;28;20265;-57
2024/03/14 02:39:29;;;;;;;25.40;12.43;;;;;;;;;;5050538;28;20258;-56
2024/03/14 02:41:56;;;;;;;24.37;12.23;;;;;;;;;;5051954;28;20309;-56
2024/03/14 02:44:22;;;;;;;23.13;12.48;;;;;;;;;;5051148;28;20251;-57
2024/03/14 02:46:50;;;;;;;22.08;11.18;;;;;;;;;;5051724;28;20025;-56
2024/03/14 02:49:18;;;;;;;20.23;11.43;;;;;;;;;;5051191;28;20033;-55
2024/03/14 02:51:45;;;;;;;22.10;12.30;;;;;;;;;;5051682;28;20354;-55
2024/03/14 02:54:10;;;;;;;22.30;12.13;;;;;;;;;;5051610;28;20271;-57
2024/03/14 02:56:35;;;;;;;19.87;12.17;;;;;;;;;;5051049;28;20282;-55
2024/03/14 02:59:01;;;;;;;24.63;12.73;;;;;;;;;;5049931;28;20064;-58
2024/03/14 03:01:30;;;;;;;20.47;11.93;;;;;;;;;;5048018;28;21281;-57
2024/03/14 03:03:55;;;;;;;23.57;12.73;;;;;;;;;;5050078;28;20324;-56
2024/03/14 03:06:21;;;;;;;23.73;12.87;;;;;;;;;;5045878;28;20283;-58
2024/03/14 03:08:46;;;;;;;26.50;13.13;;;;;;;;;;5048276;28;20262;-58
2024/03/14 03:11:12;;;;;;;22.38;13.10;;;;;;;;;;5050117;28;20268;-57
2024/03/14 03:13:38;;;;;;;23.97;13.37;;;;;;;;;;5050467;28;20041;-57
2024/03/14 03:16:04;;;;;;;24.33;13.10;;;;;;;;;;5049879;28;20267;-56
2024/03/14 03:18:32;;;;;;;27.10;13.00;;;;;;;;;;5049983;28;21685;-57
2024/03/14 03:20:57;;;;;;;28.53;13.77;;;;;;;;;;5048709;28;20026;-54
2024/03/14 03:23:24;;;;;;;22.35;13.45;;;;;;;;;;5044164;28;20297;-58
2024/03/14 03:25:49;;;;;;;22.27;13.40;;;;;;;;;;5049308;28;20037;-55
2024/03/14 03:28:15;;;;;;;22.17;13.20;;;;;;;;;;5050088;28;20041;-57
2024/03/14 03:30:40;;;;;;;26.55;13.95;;;;;;;;;;5049938;28;20026;-58
2024/03/14 03:33:11;;;;;;;25.30;13.73;;;;;;;;;;5049799;28;20025;-55
2024/03/14 03:35:37;;;;;;;30.47;14.30;;;;;;;;;;5050572;28;20025;-57
2024/03/14 03:38:06;;;;;;;32.37;14.03;;;;;;;;;;5050396;28;20251;-54
2024/03/14 03:40:35;;;;;;;25.40;13.40;;;;;;;;;;5049421;28;20330;-55
2024/03/14 03:43:02;;;;;;;30.07;15.20;;;;;;;;;;5050303;28;20338;-56
2024/03/14 03:45:27;;;;;;;23.35;13.65;;;;;;;;;;5052848;28;20266;-57
2024/03/14 03:47:54;;;;;;;27.25;14.77;;;;;;;;;;5053692;28;20040;-58
2024/03/14 03:50:20;;;;;;;29.63;14.13;;;;;;;;;;5050738;28;20052;-53
2024/03/14 03:52:46;;;;;;;25.67;14.13;;;;;;;;;;5049405;28;20270;-56
2024/03/14 03:55:16;;;;;;;26.73;14.73;;;;;;;;;;5048260;28;20288;-57
2024/03/14 03:57:42;;;;;;;32.07;14.43;;;;;;;;;;5047886;28;20025;-57
2024/03/14 04:00:32;;;;;;;30.45;15.10;;;;;;;;;;5051709;28;20251;-57
2024/03/14 04:02:53;;;;;;;27.17;14.70;;;;;;;;;;5048505;28;20040;-56
2024/03/14 04:05:20;;;;;;;27.67;14.00;;;;;;;;;;5049366;28;20254;-58
2024/03/14 04:07:45;;;;;;;23.90;14.68;;;;;;;;;;5046281;28;20227;-55
2024/03/14 04:10:11;;;;;;;25.38;14.00;;;;;;;;;;5048443;28;20058;-56
2024/03/14 04:12:37;;;;;;;23.50;13.23;;;;;;;;;;5047846;28;20085;-55
2024/03/14 04:15:06;;;;;;;29.75;13.98;;;;;;;;;;5045745;28;20060;-52
2024/03/14 04:17:32;;;;;;;27.57;15.10;;;;;;;;;;5051398;28;20093;-59
2024/03/14 04:19:59;;;;;;;;;;;;;;;;;;5049248;28;20323;-56
2024/03/14 04:22:25;;;;;;;27.15;13.60;;;;;;;;;;5048737;28;19976;-57
2024/03/14 04:24:51;;;;;;;26.27;12.98;;;;;;;;;;5051288;28;20033;-57
2024/03/14 04:27:17;;;;;;;27.05;14.73;;;;;;;;;;5048678;28;20033;-56
2024/03/14 04:29:42;;;;;;;25.83;13.70;;;;;;;;;;5045294;28;20056;-58
2024/03/14 04:32:13;;;;;;;33.17;15.25;;;;;;;;;;5049704;28;20026;-56
2024/03/14 04:34:38;;;;;;;30.87;16.27;;;;;;;;;;5048696;28;20128;-55
2024/03/14 04:37:03;;;;;;;34.07;14.23;;;;;;;;;;5053148;28;20267;-54
2024/03/14 04:39:29;;;;;;;30.80;14.30;;;;;;;;;;5052107;28;20025;-57
2024/03/14 04:41:55;;;;;;;31.90;13.88;;;;;;;;;;5051113;28;20267;-56
2024/03/14 04:44:21;;;;;;;27.25;15.27;;;;;;;;;;5053750;28;20075;-55
2024/03/14 04:46:47;;;;;;;30.83;14.50;;;;;;;;;;5049439;28;20033;-55
2024/03/14 04:49:12;;;;;;;28.92;13.68;;;;;;;;;;5049707;28;20022;-57
2024/03/14 04:51:38;;;;;;;28.40;15.88;;;;;;;;;;5053729;28;20065;-56
2024/03/14 04:54:03;;;;;;;28.42;14.00;;;;;;;;;;5054390;28;20033;-57
2024/03/14 04:56:32;;;;;;;29.35;13.48;;;;;;;;;;5052294;28;20037;-56
2024/03/14 04:58:57;;;;;;;27.73;15.43;;;;;;;;;;5052347;28;20089;-57
2024/03/14 05:01:25;;;;;;;24.67;14.65;;;;;;;;;;5052392;28;20273;-55
2024/03/14 05:03:51;;;;;;;31.23;15.23;;;;;;;;;;5052504;28;20045;-56
2024/03/14 05:06:17;;;;;;;32.00;15.40;;;;;;;;;;5052040;28;20341;-53
2024/03/14 05:08:43;;;;;;;29.00;14.75;;;;;;;;;;5052886;28;20277;-56
2024/03/14 05:11:08;;;;;;;30.85;16.67;;;;;;;;;;5054371;28;20041;-54
2024/03/14 05:13:34;;;;;;;24.98;14.27;;;;;;;;;;5051046;28;20029;-57
2024/03/14 05:16:00;;;;;;;29.67;14.27;;;;;;;;;;5054978;28;20045;-59
2024/03/14 05:18:25;;;;;;;30.00;14.73;;;;;;;;;;5053383;28;20026;-56
2024/03/14 05:20:53;;;;;;;25.07;13.87;;;;;;;;;;5051946;28;20034;-56
2024/03/14 05:23:18;;;;;;;29.83;13.97;;;;;;;;;;5052190;28;20266;-56
2024/03/14 05:25:43;;;;;;;28.17;12.97;;;;;;;;;;5052993;28;20282;-54
2024/03/14 05:28:09;;;;;;;31.60;15.97;;;;;;;;;;5053034;28;20033;-55
2024/03/14 05:30:36;;;;;;;24.58;12.32;;;;;;;;;;5054082;28;20037;-56
2024/03/14 05:33:01;;;;;;;33.45;13.63;;;;;;;;;;5053552;28;20034;-55
2024/03/14 05:35:26;;;;;;;29.20;14.83;;;;;;;;;;5053507;28;20018;-56
2024/03/14 05:37:52;;;;;;;25.40;14.23;;;;;;;;;;5052616;28;20049;-56
2024/03/14 05:40:17;;;;;;;30.77;14.53;;;;;;;;;;5053654;28;20044;-57
2024/03/14 05:42:43;;;;;;;23.30;13.13;;;;;;;;;;5053800;28;20262;-59
2024/03/14 05:45:08;;;;;;;25.57;14.73;;;;;;;;;;5053471;28;20255;-55
2024/03/14 05:47:35;;;;;;;25.63;12.70;;;;;;;;;;5053787;28;20279;-54
2024/03/14 05:50:00;;;;;;;;;;;;;;;;;;5054370;28;20031;-54
2024/03/14 05:52:26;;;;;;;34.03;12.83;;;;;;;;;;5049824;28;19967;-57
2024/03/14 05:54:51;;;;;;;25.40;13.13;;;;;;;;;;5050925;28;20049;-55
2024/03/14 05:57:16;;;;;;;26.63;14.03;;;;;;;;;;5051243;28;20049;-55
2024/03/14 05:59:43;;;;;;;24.25;12.68;;;;;;;;;;5051199;28;20259;-58
2024/03/14 06:02:08;;;;;;;25.92;12.15;;;;;;;;;;5052169;28;20049;-58
2024/03/14 06:04:34;;;;;;;22.97;12.47;;;;;;;;;;5050778;28;20041;-56
2024/03/14 06:06:59;;;;;;;25.13;11.55;;;;;;;;;;5050968;28;20028;-56
2024/03/14 06:09:43;;;;;;;25.23;13.73;;;;;;;;;;5052450;28;20041;-58
2024/03/14 06:12:09;;;;;;;28.93;13.40;;;;;;;;;;5050701;28;20337;-54
2024/03/14 06:14:35;;;;;;;23.70;12.30;;;;;;;;;;5051724;28;20271;-55
2024/03/14 06:17:00;;;;;;;23.05;13.43;;;;;;;;;;5048487;28;20034;-53
2024/03/14 06:19:26;;;;;;;27.63;14.10;;;;;;;;;;5051951;28;20044;-57
2024/03/14 06:21:52;;;;;;;27.63;13.13;;;;;;;;;;5049896;28;20041;-57
2024/03/14 06:24:17;;;;;;;29.77;14.23;;;;;;;;;;5050242;28;20282;-55
2024/03/14 06:26:43;;;;;;;24.60;12.30;;;;;;;;;;5050988;28;20047;-57
2024/03/14 06:29:09;;;;;;;24.55;12.63;;;;;;;;;;5050138;28;20059;-55
2024/03/14 06:31:35;;;;;;;24.25;13.40;;;;;;;;;;5050819;28;20052;-56
2024/03/14 06:34:00;;;;;;;21.97;12.43;;;;;;;;;;5051971;28;20129;-55
2024/03/14 06:36:26;;;;;;;21.37;13.60;;;;;;;;;;5052060;28;20052;-57
2024/03/14 06:38:53;;;;;;;19.92;12.13;;;;;;;;;;5050883;28;20025;-55
2024/03/14 06:41:19;;;;;;;25.00;12.33;;;;;;;;;;5051644;28;20041;-57
2024/03/14 06:43:44;;;;;;;26.50;14.00;;;;;;;;;;5051394;28;20273;-59
2024/03/14 06:46:11;;;;;;;28.23;13.00;;;;;;;;;;5051782;28;20033;-55
2024/03/14 06:48:37;;;;;;;22.90;12.00;;;;;;;;;;5053122;28;20025;-57
2024/03/14 06:51:02;;;;;;;18.83;11.57;;;;;;;;;;5050954;28;20354;-60
2024/03/14 06:53:27;;;;;;;23.73;12.33;;;;;;;;;;5051274;28;20043;-58
2024/03/14 06:55:53;;;;;;;20.93;11.83;;;;;;;;;;5049556;28;20381;-55
2024/03/14 06:58:18;;;;;;;21.73;11.60;;;;;;;;;;5050534;28;20056;-55
2024/03/14 07:00:44;;;;;;;24.20;12.63;;;;;;;;;;5050319;28;20045;-56
2024/03/14 07:03:11;;;;;;;24.03;11.97;;;;;;;;;;5049550;28;20048;-56
2024/03/14 07:05:36;;;;;;;;;;;;;;;;;;5051403;28;20038;-57
2024/03/14 07:08:03;;;;;;;22.13;11.65;;;;;;;;;;5047397;28;19976;-56
2024/03/14 07:10:29;;;;;;;19.77;11.57;;;;;;;;;;5047959;28;20033;-58
2024/03/14 07:12:57;;;;;;;27.77;11.27;;;;;;;;;;5050239;28;20266;-57
2024/03/14 07:15:23;;;;;;;21.20;11.53;;;;;;;;;;5048501;28;20339;-57
2024/03/14 07:17:48;;;;;;;19.60;9.90;;;;;;;;;;5050213;28;20313;-56
2024/03/14 07:20:17;;;;;;;17.67;10.27;;;;;;;;;;5050448;28;20285;-57
2024/03/14 07:22:43;;;;;;;17.20;10.33;;;;;;;;;;5050441;28;20028;-56
2024/03/14 07:25:09;;;;;;;17.20;10.90;;;;;;;;;;5049941;28;20259;-54
2024/03/14 07:27:36;;;;;;;20.37;10.80;;;;;;;;;;5049707;28;20089;-56
2024/03/14 07:30:03;;;;;;;17.17;9.50;;;;;;;;;;5050734;28;20285;-57
2024/03/14 07:32:29;;;;;;;16.90;10.20;;;;;;;;;;5050230;28;20266;-54
2024/03/14 07:34:55;;;;;;;17.27;9.87;;;;;;;;;;5050571;28;20270;-59
2024/03/14 07:37:23;;;;;;;17.03;9.67;;;;;;;;;;5051277;28;20239;-55
2024/03/14 07:39:52;;;;;;;14.80;9.20;;;;;;;;;;5050456;28;20271;-57
2024/03/14 07:42:21;;;;;;;15.93;8.93;;;;;;;;;;5051243;28;20312;-57
2024/03/14 07:44:47;;;;;;;18.20;9.50;;;;;;;;;;5051892;28;20263;-58
2024/03/14 07:47:23;;;;;;;14.60;9.63;;;;;;;;;;5051015;28;20365;-56
2024/03/14 07:49:48;;;;;;;16.42;9.15;;;;;;;;;;5050854;28;20025;-56
2024/03/14 07:52:17;;;;;;;16.90;8.90;;;;;;;;;;5051693;28;20030;-58
2024/03/14 07:54:45;;;;;;;14.97;8.90;;;;;;;;;;5050071;28;20025;-57
2024/03/14 07:57:14;;;;;;;13.57;8.30;;;;;;;;;;5049794;28;20279;-58
2024/03/14 07:59:40;;;;;;;13.83;8.17;;;;;;;;;;5051116;28;20267;-55
2024/03/14 08:02:07;;;;;;;16.27;8.35;;;;;;;;;;5053390;28;20263;-58
2024/03/14 08:04:34;;;;;;;14.27;7.63;;;;;;;;;;5054107;28;20029;-57
2024/03/14 08:07:10;;;;;;;13.77;7.53;;;;;;;;;;5051406;28;20305;-56
2024/03/14 08:09:37;;;;;;;15.38;7.78;;;;;;;;;;5052161;28;20273;-58
2024/03/14 08:12:02;;;;;;;;;;;;;;;;;;5052842;28;20040;-57
2024/03/14 08:14:29;;;;;;;13.03;7.33;;;;;;;;;;5057360;28;19916;-57
2024/03/14 08:16:55;;;;;;;13.40;7.17;;;;;;;;;;5056821;28;20025;-57
2024/03/14 08:19:21;;;;;;;12.40;8.20;;;;;;;;;;5054443;28;20320;-58
2024/03/14 08:21:47;;;;;;;12.55;7.45;;;;;;;;;;5054512;28;20085;-53
2024/03/14 08:24:16;;;;;;;13.38;7.53;;;;;;;;;;5060123;28;20068;-58
2024/03/14 08:26:41;;;;;;;12.43;7.50;;;;;;;;;;5053423;28;20037;-58
2024/03/14 08:29:07;;;;;;;11.55;7.45;;;;;;;;;;5052173;28;20297;-56
2024/03/14 08:31:33;;;;;;;13.43;6.95;;;;;;;;;;5052225;28;20112;-57
2024/03/14 08:33:58;;;;;;;11.47;7.10;;;;;;;;;;5052843;28;20033;-57
2024/03/14 08:36:24;;;;;;;13.40;7.13;;;;;;;;;;5053042;28;20033;-52
2024/03/14 08:38:49;;;;;;;10.40;6.70;;;;;;;;;;5052124;28;20033;-57
2024/03/14 08:41:14;;;;;;;10.20;5.80;;;;;;;;;;5053231;28;20057;-54
2024/03/14 08:43:40;;;;;;;8.75;6.07;;;;;;;;;;5052636;28;20029;-58
2024/03/14 08:46:09;;;;;;;13.50;6.30;;;;;;;;;;5047166;28;20025;-58
2024/03/14 08:48:34;;;;;;;11.20;5.70;;;;;;;;;;5050805;28;20021;-57
2024/03/14 08:51:00;;;;;;;7.83;4.87;;;;;;;;;;5050366;28;20688;-58
2024/03/14 08:53:36;;;;;;;7.60;5.45;;;;;;;;;;5051926;28;20683;-54
2024/03/14 08:56:01;;;;;;;8.25;5.32;;;;;;;;;;5050742;28;20156;-56
2024/03/14 08:58:30;;;;;;;11.05;5.70;;;;;;;;;;5052303;28;20033;-57
2024/03/14 09:00:56;;;;;;;6.87;4.77;;;;;;;;;;5052835;28;20037;-55
2024/03/14 09:03:22;;;;;;;8.90;5.18;;;;;;;;;;5052672;28;20271;-55
2024/03/14 09:05:49;;;;;;;9.05;5.18;;;;;;;;;;5052499;28;20088;-52
2024/03/14 09:08:21;;;;;;;9.23;4.70;;;;;;;;;;5052714;28;20038;-56
2024/03/14 09:10:47;;;;;;;8.30;4.90;;;;;;;;;;5053294;28;20033;-57
2024/03/14 09:13:14;;;;;;;8.75;4.20;;;;;;;;;;5054093;28;20049;-55
2024/03/14 09:15:43;;;;;;;5.70;3.93;;;;;;;;;;5054050;28;20049;-53
2024/03/14 09:18:09;;;;;;;6.57;3.97;;;;;;;;;;5053597;28;20092;-57
2024/03/14 09:20:34;;;;;;;6.15;4.20;;;;;;;;;;5052890;28;20049;-55
2024/03/14 09:22:59;;;;;;;7.57;4.40;;;;;;;;;;5050409;28;20033;-57
2024/03/14 09:25:28;;;;;;;7.15;4.70;;;;;;;;;;5051333;28;20037;-55
2024/03/14 09:27:54;;;;;;;9.87;4.23;;;;;;;;;;5049921;28;20044;-53
2024/03/14 09:30:21;;;;;;;8.23;3.92;;;;;;;;;;5049791;28;20029;-58
2024/03/14 09:32:46;;;;;;;11.03;4.27;;;;;;;;;;5050506;28;20045;-55
2024/03/14 09:35:15;;;;;;;6.00;3.87;;;;;;;;;;5052261;28;20121;-54
2024/03/14 09:37:43;;;;;;;7.83;3.77;;;;;;;;;;5050223;28;20025;-56
2024/03/14 09:40:15;;;;;;;5.33;3.77;;;;;;;;;;5048137;28;20035;-56
2024/03/14 09:42:47;;;;;;;6.83;3.80;;;;;;;;;;5050187;28;20060;-57
2024/03/14 09:45:14;;;;;;;9.07;3.53;;;;;;;;;;5051649;28;20025;-55
2024/03/14 09:47:40;;;;;;;9.23;3.70;;;;;;;;;;5051410;28;20026;-52
2024/03/14 09:50:06;;;;;;;4.55;3.15;;;;;;;;;;5049854;28;20059;-58
2024/03/14 09:52:34;;;;;;;8.03;3.20;;;;;;;;;;5050996;28;20034;-54
2024/03/14 09:55:00;;;;;;;5.00;3.07;;;;;;;;;;5050027;28;20041;-54
2024/03/14 09:57:26;;;;;;;7.03;2.80;;;;;;;;;;5050522;28;20025;-58
2024/03/14 09:59:52;;;;;;;4.30;2.78;;;;;;;;;;5050864;28;20040;-58
2024/03/14 10:02:17;;;;;;;;;;;;;;;;;;5052576;28;20033;-59
2024/03/14 10:04:43;;;;;;;2.50;1.70;;;;;;;;;;5054792;28;19943;-57
2024/03/14 10:07:09;;;;;;;4.67;2.00;;;;;;;;;;5053366;28;20035;-58
2024/03/14 10:09:35;;;;;;;4.57;2.17;;;;;;;;;;5051872;28;20053;-58
2024/03/14 10:12:02;;;;;;;3.63;1.98;;;;;;;;;;5053781;28;20361;-54
2024/03/14 10:14:32;;;;;;;4.17;2.23;;;;;;;;;;5054593;28;20140;-57
2024/03/14 10:16:58;;;;;;;4.80;2.20;;;;;;;;;;5052155;28;20045;-57
2024/03/14 10:19:27;;;;;;;5.73;2.40;;;;;;;;;;5049850;28;20029;-54
2024/03/14 10:21:53;;;;;;;3.70;2.20;;;;;;;;;;5053194;28;20040;-56
2024/03/14 10:24:21;;;;;;;4.55;2.45;;;;;;;;;;5051951;28;20025;-55
2024/03/14 10:26:48;;;;;;;6.20;2.20;;;;;;;;;;5050669;28;20089;-56
2024/03/14 10:29:14;;;;;;;3.50;2.05;;;;;;;;;;5050813;28;20026;-58
2024/03/14 10:31:46;;;;;;;5.00;2.10;;;;;;;;;;5051657;28;20085;-55
2024/03/14 10:34:13;;;;;;;4.18;2.20;;;;;;;;;;5048702;28;20033;-57
2024/03/14 10:36:41;;;;;;;3.63;2.20;;;;;;;;;;5049996;28;20029;-58
2024/03/14 10:39:13;;;;;;;3.08;1.92;;;;;;;;;;5049484;28;20084;-55
2024/03/14 10:41:42;;;;;;;3.60;1.92;;;;;;;;;;5050445;28;20033;-54
2024/03/14 10:44:08;;;;;;;3.85;2.45;;;;;;;;;;5051135;28;20036;-58
2024/03/14 10:46:37;;;;;;;4.97;2.40;;;;;;;;;;5050181;28;20058;-58
2024/03/14 10:49:03;;;;;;;3.55;2.33;;;;;;;;;;5050754;28;20041;-58
2024/03/14 10:51:30;;;;;;;4.18;2.28;;;;;;;;;;5050789;28;20042;-56
2024/03/14 10:53:56;;;;;;;3.38;2.22;;;;;;;;;;5048829;28;20034;-55
2024/03/14 10:56:22;;;;;;;6.05;1.90;;;;;;;;;;5050845;28;20025;-57
2024/03/14 10:58:53;;;;;;;5.85;2.50;;;;;;;;;;5049375;28;20033;-54
2024/03/14 11:01:19;;;;;;;3.13;2.00;;;;;;;;;;5049012;28;20116;-56
2024/03/14 11:03:45;;;;;;;6.68;2.33;;;;;;;;;;5050659;28;20025;-57
2024/03/14 11:06:21;;;;;;;4.13;2.10;;;;;;;;;;5050274;28;20096;-55
2024/03/14 11:08:48;;;;;;;5.93;2.30;;;;;;;;;;5047276;28;20033;-57
2024/03/14 11:11:17;;;;;;;2.72;2.03;;;;;;;;;;5048619;28;20029;-57
2024/03/14 11:13:44;;;;;;;4.22;2.33;;;;;;;;;;5047271;28;20089;-56
2024/03/14 11:16:13;;;;;;;5.15;2.22;;;;;;;;;;5048620;28;20055;-57
2024/03/14 11:18:40;;;;;;;6.35;2.55;;;;;;;;;;5047435;28;20022;-55
2024/03/14 11:21:06;;;;;;;3.53;2.15;;;;;;;;;;5046641;28;20037;-53
2024/03/14 11:23:34;;;;;;;5.97;2.40;;;;;;;;;;5047891;28;20048;-56
2024/03/14 11:26:02;;;;;;;2.88;1.60;;;;;;;;;;5047718;28;20632;-55
2024/03/14 11:28:28;;;;;;;3.88;1.90;;;;;;;;;;5046710;28;20090;-57
2024/03/14 11:30:55;;;;;;;9.35;2.35;;;;;;;;;;5048514;28;20030;-56
2024/03/14 11:33:20;;;;;;;4.35;1.88;;;;;;;;;;5047956;28;20045;-57
2024/03/14 11:35:47;;;;;;;4.50;2.03;;;;;;;;;;5050124;28;20045;-58
2024/03/14 11:38:13;;;;;;;5.68;1.77;;;;;;;;;;5047935;28;20029;-63
2024/03/14 11:40:38;;;;;;;3.92;2.17;;;;;;;;;;5047085;28;20026;-56
2024/03/14 11:43:06;;;;;;;3.35;1.77;;;;;;;;;;5048416;28;20036;-58
2024/03/14 11:45:31;;;;;;;2.97;1.75;;;;;;;;;;5052517;28;20032;-58
2024/03/14 11:47:57;;;;;;;4.25;1.42;;;;;;;;;;5051831;28;20026;-56
2024/03/14 11:50:24;;;;;;;3.47;1.70;;;;;;;;;;5052633;28;20089;-57
2024/03/14 11:52:53;;;;;;;3.47;1.85;;;;;;;;;;5055547;28;20026;-56
2024/03/14 11:55:19;;;;;;;3.38;1.60;;;;;;;;;;5055265;28;20039;-57
2024/03/14 11:57:48;;;;;;;2.92;1.70;;;;;;;;;;5056649;28;20057;-55
2024/03/14 12:00:20;;;;;;;2.80;1.60;;;;;;;;;;5054927;28;20034;-55
2024/03/14 12:02:46;;;;;;;2.83;1.70;;;;;;;;;;5052864;28;20101;-56
2024/03/14 12:05:19;;;;;;;2.67;1.60;;;;;;;;;;5055973;28;20022;-58
2024/03/14 12:07:46;;;;;;;2.75;1.50;;;;;;;;;;5049725;28;20029;-55
2024/03/14 12:10:15;;;;;;;5.40;1.55;;;;;;;;;;5051635;28;20047;-59
2024/03/14 12:12:41;;;;;;;3.08;1.58;;;;;;;;;;5051349;28;20041;-57
2024/03/14 12:15:10;;;;;;;3.08;1.60;;;;;;;;;;5053089;28;20029;-55
2024/03/14 12:17:36;;;;;;;2.88;1.58;;;;;;;;;;5051968;28;20044;-57
2024/03/14 12:20:04;;;;;;;2.95;1.80;;;;;;;;;;5052644;28;20033;-56
2024/03/14 12:22:39;;;;;;;2.67;1.58;;;;;;;;;;5051247;28;20029;-56
2024/03/14 12:25:05;;;;;;;4.43;1.40;;;;;;;;;;5051992;28;20091;-58
2024/03/14 12:27:30;;;;;;;5.20;1.48;;;;;;;;;;5054532;28;20053;-56
2024/03/14 12:29:58;;;;;;;4.15;1.67;;;;;;;;;;5051741;28;20405;-58
2024/03/14 12:32:24;;;;;;;2.80;1.85;;;;;;;;;;5054349;28;20088;-56
2024/03/14 12:34:50;;;;;;;2.22;1.50;;;;;;;;;;5053189;28;20087;-57
2024/03/14 12:37:19;;;;;;;2.55;1.40;;;;;;;;;;5050856;28;20120;-58
2024/03/14 12:39:48;;;;;;;3.13;1.42;;;;;;;;;;5050960;28;20026;-58
2024/03/14 12:42:15;;;;;;;3.00;1.40;;;;;;;;;;5052179;28;20036;-58
2024/03/14 12:44:41;;;;;;;2.88;1.65;;;;;;;;;;5052686;28;20093;-57
2024/03/14 12:47:07;;;;;;;3.25;1.90;;;;;;;;;;5052765;28;20042;-57
2024/03/14 12:49:34;;;;;;;3.10;1.73;;;;;;;;;;5053851;28;20029;-57
2024/03/14 12:51:59;;;;;;;2.53;1.27;;;;;;;;;;5054338;28;20068;-57
2024/03/14 12:54:32;;;;;;;2.47;1.20;;;;;;;;;;5050932;28;20037;-56
2024/03/14 12:56:57;;;;;;;6.97;1.75;;;;;;;;;;5051071;28;20041;-58
2024/03/14 12:59:24;;;;;;;4.85;1.52;;;;;;;;;;5051764;28;20029;-59
2024/03/14 13:01:53;;;;;;;2.63;1.40;;;;;;;;;;5052531;28;20087;-59
2024/03/14 13:04:20;;;;;;;5.10;1.40;;;;;;;;;;5051552;28;20037;-60
2024/03/14 13:06:46;;;;;;;3.92;1.48;;;;;;;;;;5052714;28;20038;-56
2024/03/14 13:09:21;;;;;;;2.25;1.30;;;;;;;;;;5052573;28;20040;-57
2024/03/14 13:12:05;;;;;;;2.35;1.20;;;;;;;;;;5051424;28;20056;-57
2024/03/14 13:14:32;;;;;;;5.57;2.47;;;;;;;;;;5051406;28;20192;-53
2024/03/14 13:17:04;;;;;;;3.10;1.50;;;;;;;;;;5048904;28;20060;-56
2024/03/14 13:19:32;;;;;;;2.83;1.55;;;;;;;;;;5051237;28;20028;-58
2024/03/14 13:21:57;;;;;;;4.10;1.38;;;;;;;;;;5052318;28;20076;-54
2024/03/14 13:24:24;;;;;;;4.97;1.67;;;;;;;;;;5053089;28;20025;-57
2024/03/14 13:26:53;;;;;;;3.75;1.35;;;;;;;;;;5054549;28;20048;-54
2024/03/14 13:29:19;;;;;;;3.55;1.42;;;;;;;;;;5052185;28;20202;-57
2024/03/14 13:31:45;;;;;;;2.80;1.30;;;;;;;;;;5053555;28;20041;-57
2024/03/14 13:34:11;;;;;;;2.42;1.35;;;;;;;;;;5053871;28;20033;-57
2024/03/14 13:36:40;;;;;;;3.75;1.33;;;;;;;;;;5055643;28;20053;-57
2024/03/14 13:39:12;;;;;;;6.25;1.38;;;;;;;;;;5056964;28;20029;-58
2024/03/14 13:41:40;;;;;;;1.80;1.10;;;;;;;;;;5054735;28;20055;-57
2024/03/14 13:44:06;;;;;;;3.30;1.50;;;;;;;;;;5051747;28;20105;-59
2024/03/14 13:46:33;;;;;;;6.47;3.42;;;;;;;;;;5067019;28;20029;-58
2024/03/14 13:49:06;;;;;;;2.90;1.30;;;;;;;;;;5053685;28;20029;-57
2024/03/14 13:51:32;;;;;;;6.63;1.48;;;;;;;;;;5051909;28;20025;-57
2024/03/14 13:53:58;;;;;;;4.13;1.23;;;;;;;;;;5053471;28;20029;-57
2024/03/14 13:56:28;;;;;;;3.90;1.15;;;;;;;;;;5055661;28;20033;-56
2024/03/14 13:58:54;;;;;;;4.60;1.30;;;;;;;;;;5053216;28;20064;-58
2024/03/14 14:01:19;;;;;;;1.83;0.93;;;;;;;;;;5055436;28;20033;-57
2024/03/14 14:03:44;;;;;;;4.47;1.10;;;;;;;;;;5056182;28;20035;-55
2024/03/14 14:06:12;;;;;;;2.47;1.17;;;;;;;;;;5054479;28;20036;-57
2024/03/14 14:08:40;;;;;;;1.80;1.15;;;;;;;;;;5052091;28;20123;-59
2024/03/14 14:11:05;;;;;;;1.45;0.90;;;;;;;;;;5057241;28;20037;-59
2024/03/14 14:13:31;;;;;;;2.30;1.00;;;;;;;;;;5054290;28;20030;-58
2024/03/14 14:15:56;;;;;;;5.22;1.35;;;;;;;;;;5054353;28;20038;-55
2024/03/14 14:18:22;;;;;;;2.80;1.08;;;;;;;;;;5051843;28;20040;-56
2024/03/14 14:20:48;;;;;;;2.78;1.00;;;;;;;;;;5051064;28;20045;-58
2024/03/14 14:23:15;;;;;;;2.78;1.17;;;;;;;;;;5051079;28;20038;-58
2024/03/14 14:25:41;;;;;;;1.63;0.88;;;;;;;;;;5050247;28;20036;-54
2024/03/14 14:28:10;;;;;;;3.55;1.17;;;;;;;;;;5051186;28;20037;-57
2024/03/14 14:30:35;;;;;;;3.33;1.13;;;;;;;;;;5052135;28;20385;-57